createdAt,value
2023-03-18T00:00:11.367Z,5.64
2023-03-18T00:02:40.277Z,5.59
2023-03-18T00:05:08.128Z,5.62
2023-03-18T00:07:36.261Z,5.58
2023-03-18T00:10:04.920Z,5.51
2023-03-18T00:12:33.177Z,5.61
2023-03-18T00:14:59.797Z,5.48
2023-03-18T00:17:26.524Z,5.44
2023-03-18T00:19:52.980Z,5.51
2023-03-18T00:22:19.385Z,5.51
2023-03-18T00:24:46.456Z,5.39
2023-03-18T00:27:12.886Z,5.30
2023-03-18T00:29:40.019Z,5.33
2023-03-18T00:32:06.813Z,5.46
2023-03-18T00:34:33.500Z,5.43
2023-03-18T00:37:00.243Z,5.43
2023-03-18T00:39:28.944Z,5.32
2023-03-18T00:41:56.840Z,5.16
2023-03-18T00:44:25.268Z,5.03
2023-03-18T00:46:52.187Z,5.20
2023-03-18T00:49:19.870Z,5.16
2023-03-18T00:51:47.695Z,5.06
2023-03-18T00:54:17.985Z,5.22
2023-03-18T00:56:44.590Z,5.15
2023-03-18T00:59:11.828Z,5.08
2023-03-18T01:01:39.033Z,5.15
2023-03-18T01:04:06.634Z,5.29
2023-03-18T01:06:35.272Z,5.28
2023-03-18T01:09:04.645Z,5.07
2023-03-18T01:11:31.186Z,5.08
2023-03-18T01:13:59.455Z,5.22
2023-03-18T01:16:26.505Z,5.33
2023-03-18T01:18:53.788Z,5.20
2023-03-18T01:21:20.431Z,5.23
2023-03-18T01:23:47.030Z,4.99
2023-03-18T01:26:14.020Z,4.87
2023-03-18T01:28:41.237Z,5.02
2023-03-18T01:31:08.184Z,5.18
2023-03-18T01:33:35.659Z,5.21
2023-03-18T01:36:03.977Z,5.14
2023-03-18T01:38:31.031Z,5.03
2023-03-18T01:40:59.245Z,5.09
2023-03-18T01:43:33.950Z,5.22
2023-03-18T01:46:02.669Z,5.29
2023-03-18T01:48:35.537Z,5.12
2023-03-18T01:51:06.296Z,5.17
2023-03-18T01:53:39.992Z,5.03
2023-03-18T01:56:08.982Z,4.96
2023-03-18T01:59:01.837Z,4.78
2023-03-18T02:01:34.682Z,4.93
2023-03-18T02:04:04.401Z,4.91
2023-03-18T02:06:31.869Z,4.65
2023-03-18T02:08:58.344Z,4.55
2023-03-18T02:13:50.727Z,4.67
2023-03-18T02:16:20.247Z,4.55
2023-03-18T02:19:15.936Z,4.51
2023-03-18T02:21:56.647Z,4.76
2023-03-18T02:24:49.617Z,4.73
2023-03-18T02:27:38.746Z,4.70
2023-03-18T02:30:10.294Z,4.80
2023-03-18T02:32:37.787Z,4.79
2023-03-18T02:35:07.493Z,4.82
2023-03-18T02:37:33.906Z,4.65
2023-03-18T02:40:24.694Z,4.63
2023-03-18T02:42:52.300Z,4.80
2023-03-18T02:45:35.536Z,4.79
2023-03-18T02:48:07.115Z,4.70
2023-03-18T02:50:34.177Z,4.50
2023-03-18T02:53:04.210Z,4.44
2023-03-18T02:55:30.985Z,4.43
2023-03-18T02:57:57.474Z,4.26
2023-03-18T03:00:24.137Z,4.40
2023-03-18T03:02:50.767Z,4.58
2023-03-18T03:05:17.477Z,4.64
2023-03-18T03:07:43.930Z,4.63
2023-03-18T03:10:11.329Z,4.67
2023-03-18T03:12:37.871Z,4.63
2023-03-18T03:15:07.032Z,4.67
2023-03-18T03:17:33.709Z,4.77
2023-03-18T03:20:00.308Z,4.46
2023-03-18T03:22:27.332Z,4.52
2023-03-18T03:24:54.238Z,4.53
2023-03-18T03:27:20.720Z,4.51
2023-03-18T03:29:47.206Z,4.49
2023-03-18T03:32:13.729Z,4.53
2023-03-18T03:34:40.141Z,4.50
2023-03-18T03:37:07.103Z,4.45
2023-03-18T03:39:33.890Z,4.33
2023-03-18T03:42:00.756Z,4.24
2023-03-18T03:44:27.189Z,4.14
2023-03-18T03:46:53.663Z,4.14
2023-03-18T03:49:20.133Z,4.07
2023-03-18T03:51:46.620Z,4.03
2023-03-18T03:54:15.720Z,3.83
2023-03-18T03:56:42.982Z,3.70
2023-03-18T03:59:10.205Z,3.67
2023-03-18T04:01:36.855Z,3.61
2023-03-18T04:04:04.006Z,3.63
2023-03-18T04:06:31.056Z,3.69
2023-03-18T04:08:57.509Z,3.71
2023-03-18T04:11:24.240Z,3.80
2023-03-18T04:13:50.741Z,3.95
2023-03-18T04:16:17.336Z,4.08
2023-03-18T04:18:44.044Z,4.09
2023-03-18T04:21:10.636Z,4.03
2023-03-18T04:23:37.362Z,4.01
2023-03-18T04:26:05.303Z,4.07
2023-03-18T04:28:31.855Z,4.08
2023-03-18T04:30:58.455Z,4.02
2023-03-18T04:33:24.893Z,3.97
2023-03-18T04:35:52.647Z,3.95
2023-03-18T04:38:19.388Z,3.88
2023-03-18T04:40:47.574Z,4.05
2023-03-18T04:43:14.017Z,4.17
2023-03-18T04:45:40.464Z,4.14
2023-03-18T04:48:07.137Z,4.25
2023-03-18T04:50:34.376Z,4.30
2023-03-18T04:53:00.824Z,4.31
2023-03-18T04:55:27.302Z,4.14
2023-03-18T04:57:54.536Z,4.12
2023-03-18T05:00:22.361Z,4.00
2023-03-18T05:02:49.386Z,4.01
2023-03-18T05:05:15.924Z,4.03
2023-03-18T05:07:43.435Z,4.02
2023-03-18T05:10:10.737Z,4.14
2023-03-18T05:12:38.023Z,4.10
2023-03-18T05:15:06.432Z,3.96
2023-03-18T05:17:32.879Z,3.98
2023-03-18T05:19:59.571Z,4.10
2023-03-18T05:22:26.449Z,4.16
2023-03-18T05:24:53.503Z,4.26
2023-03-18T05:27:20.861Z,4.17
2023-03-18T05:29:48.297Z,4.07
2023-03-18T05:32:15.624Z,4.05
2023-03-18T05:34:43.442Z,4.05
2023-03-18T05:37:12.638Z,4.08
2023-03-18T05:39:39.822Z,4.07
2023-03-18T05:42:07.065Z,4.12
2023-03-18T05:44:34.070Z,4.24
2023-03-18T05:47:01.707Z,4.35
2023-03-18T05:49:28.480Z,4.38
2023-03-18T05:51:55.933Z,4.33
2023-03-18T05:54:22.681Z,4.26
2023-03-18T05:56:52.689Z,4.31
2023-03-18T05:59:24.474Z,4.26
2023-03-18T06:01:52.805Z,4.17
2023-03-18T06:04:19.939Z,4.26
2023-03-18T06:06:48.611Z,4.32
2023-03-18T06:09:15.839Z,4.36
2023-03-18T06:11:42.402Z,4.42
2023-03-18T06:14:12.624Z,4.60
2023-03-18T06:16:40.304Z,4.66
2023-03-18T06:19:07.861Z,4.81
2023-03-18T06:21:34.880Z,4.87
2023-03-18T06:24:02.365Z,4.97
2023-03-18T06:26:29.152Z,5.12
2023-03-18T06:28:56.586Z,5.03
2023-03-18T06:31:24.206Z,4.90
2023-03-18T06:33:50.898Z,4.87
2023-03-18T06:36:17.970Z,4.81
2023-03-18T06:38:45.084Z,4.68
2023-03-18T06:41:16.295Z,4.65
2023-03-18T06:43:43.492Z,4.76
2023-03-18T06:46:10.703Z,4.82
2023-03-18T06:48:40.475Z,4.89
2023-03-18T06:51:07.884Z,4.72
2023-03-18T06:53:36.571Z,4.81
2023-03-18T06:56:06.745Z,4.81
2023-03-18T06:58:36.158Z,4.94
2023-03-18T07:01:05.666Z,5.01
2023-03-18T07:03:33.262Z,5.18
2023-03-18T07:06:02.642Z,5.30
2023-03-18T07:08:29.325Z,5.32
2023-03-18T07:10:59.495Z,5.38
2023-03-18T07:13:26.175Z,5.35
2023-03-18T07:15:59.277Z,5.38
2023-03-18T07:18:27.218Z,5.54
2023-03-18T07:20:54.569Z,5.59
2023-03-18T07:23:21.966Z,5.74
2023-03-18T07:25:48.480Z,5.92
2023-03-18T07:28:15.440Z,5.99
2023-03-18T07:30:42.594Z,6.09
2023-03-18T07:33:09.667Z,6.36
2023-03-18T07:35:38.078Z,6.57
2023-03-18T07:38:05.398Z,6.75
2023-03-18T07:40:32.534Z,6.86
2023-03-18T07:42:59.166Z,7.06
2023-03-18T07:45:28.963Z,7.23
2023-03-18T07:47:55.380Z,7.42
2023-03-18T07:50:22.719Z,7.49
2023-03-18T07:52:50.351Z,7.61
2023-03-18T07:56:03.999Z,7.74
2023-03-18T07:58:30.545Z,7.67
2023-03-18T08:00:57.634Z,7.84
2023-03-18T08:03:24.751Z,7.70
2023-03-18T08:05:51.563Z,7.62
2023-03-18T08:08:18.372Z,7.79
2023-03-18T08:10:45.188Z,7.95
2023-03-18T08:13:13.269Z,8.05
2023-03-18T08:15:41.057Z,8.07
2023-03-18T08:18:09.399Z,8.21
2023-03-18T08:20:36.338Z,8.44
2023-03-18T08:23:04.351Z,8.50
2023-03-18T08:25:31.802Z,8.43
2023-03-18T08:27:58.808Z,8.54
2023-03-18T08:30:28.684Z,8.82
2023-03-18T08:32:56.270Z,9.07
2023-03-18T08:35:25.891Z,9.22
2023-03-18T08:37:53.827Z,9.29
2023-03-18T08:40:21.207Z,9.35
2023-03-18T08:42:49.084Z,9.16
2023-03-18T08:45:16.513Z,9.19
2023-03-18T08:47:44.304Z,9.25
2023-03-18T08:50:12.314Z,9.36
2023-03-18T08:52:39.956Z,9.43
2023-03-18T08:55:08.345Z,9.64
2023-03-18T08:57:35.586Z,9.81
2023-03-18T09:00:02.537Z,9.92
2023-03-18T09:02:29.964Z,9.90
2023-03-18T09:04:56.647Z,9.90
2023-03-18T09:07:23.508Z,10.03
2023-03-18T09:09:50.665Z,10.21
2023-03-18T09:12:18.578Z,10.38
2023-03-18T09:14:45.487Z,10.51
2023-03-18T09:17:12.799Z,10.52
2023-03-18T09:19:39.557Z,10.54
2023-03-18T09:22:06.929Z,10.49
2023-03-18T09:24:33.492Z,10.55
2023-03-18T09:27:00.623Z,10.82
2023-03-18T09:29:28.075Z,11.00
2023-03-18T09:31:57.061Z,11.10
2023-03-18T09:34:23.836Z,11.25
2023-03-18T09:36:53.750Z,11.36
2023-03-18T09:39:24.506Z,11.42
2023-03-18T09:42:48.624Z,11.62
2023-03-18T09:45:24.808Z,11.76
2023-03-18T09:48:01.143Z,11.90
2023-03-18T09:51:04.612Z,12.10
2023-03-18T09:53:42.926Z,12.04
2023-03-18T09:56:17.891Z,12.02
2023-03-18T09:59:16.055Z,11.85
2023-03-18T10:01:45.853Z,11.89
2023-03-18T10:04:39.166Z,12.19
2023-03-18T10:07:16.925Z,12.24
2023-03-18T10:09:47.279Z,12.47
2023-03-18T10:12:14.033Z,12.70
2023-03-18T10:14:51.515Z,12.72
2023-03-18T10:17:25.408Z,12.85
2023-03-18T10:19:57.729Z,12.89
2023-03-18T10:22:24.614Z,13.09
2023-03-18T10:25:01.568Z,13.17
2023-03-18T10:27:49.701Z,13.23
2023-03-18T10:30:43.886Z,13.45
2023-03-18T10:33:32.614Z,13.66
2023-03-18T10:36:18.434Z,13.52
2023-03-18T10:38:48.794Z,13.51
2023-03-18T10:41:25.411Z,13.55
2023-03-18T10:43:55.900Z,13.58
2023-03-18T10:46:25.837Z,13.55
2023-03-18T10:49:15.347Z,13.62
2023-03-18T10:51:53.364Z,13.68
2023-03-18T10:54:39.734Z,13.99
2023-03-18T10:57:06.954Z,14.07
2023-03-18T10:59:37.997Z,14.40
2023-03-18T11:02:14.088Z,14.35
2023-03-18T11:04:52.397Z,14.11
2023-03-18T11:07:26.243Z,14.30
2023-03-18T11:09:54.302Z,14.42
2023-03-18T11:12:27.181Z,14.44
2023-03-18T11:14:55.067Z,14.52
2023-03-18T11:17:23.665Z,14.54
2023-03-18T11:20:02.576Z,14.50
2023-03-18T11:22:30.582Z,14.16
2023-03-18T11:25:16.864Z,14.37
2023-03-18T11:27:43.488Z,14.57
2023-03-18T11:30:40.691Z,14.60
2023-03-18T11:33:10.298Z,14.79
2023-03-18T11:36:05.024Z,14.66
2023-03-18T11:38:37.383Z,14.82
2023-03-18T11:41:17.236Z,14.71
2023-03-18T11:43:59.986Z,14.40
2023-03-18T11:46:32.815Z,14.18
2023-03-18T11:49:00.817Z,14.34
2023-03-18T11:51:55.099Z,14.60
2023-03-18T11:54:51.341Z,14.89
2023-03-18T11:57:32.384Z,14.83
2023-03-18T12:00:01.714Z,14.70
2023-03-18T12:02:57.948Z,14.81
2023-03-18T12:05:52.438Z,14.76
2023-03-18T12:08:31.674Z,14.53
2023-03-18T12:11:13.166Z,14.62
2023-03-18T12:13:59.130Z,14.87
2023-03-18T12:16:39.891Z,14.78
2023-03-18T12:19:27.637Z,14.69
2023-03-18T12:22:15.627Z,14.72
2023-03-18T12:24:52.588Z,14.75
2023-03-18T12:27:22.385Z,14.62
2023-03-18T12:30:19.892Z,14.78
2023-03-18T12:33:00.223Z,14.89
2023-03-18T12:35:47.290Z,14.88
2023-03-18T12:38:16.992Z,14.84
2023-03-18T12:41:10.877Z,14.79
2023-03-18T12:43:58.786Z,14.89
2023-03-18T12:46:59.917Z,14.83
2023-03-18T12:49:36.513Z,14.79
2023-03-18T12:52:33.404Z,14.80
2023-03-18T12:55:07.696Z,14.86
2023-03-18T12:57:58.218Z,15.14
2023-03-18T13:00:31.576Z,14.95
2023-03-18T13:03:07.377Z,14.94
2023-03-18T13:05:43.222Z,14.94
2023-03-18T13:08:41.887Z,15.00
2023-03-18T13:11:18.134Z,14.93
2023-03-18T13:13:52.524Z,14.94
2023-03-18T13:16:21.489Z,14.93
2023-03-18T13:18:56.074Z,15.05
2023-03-18T13:21:29.785Z,15.36
2023-03-18T13:24:16.279Z,15.07
2023-03-18T13:26:53.909Z,14.95
2023-03-18T13:29:55.942Z,15.09
2023-03-18T13:32:42.072Z,15.15
2023-03-18T13:35:28.361Z,15.29
2023-03-18T13:38:25.269Z,15.42
2023-03-18T13:41:04.430Z,15.52
2023-03-18T13:43:34.093Z,15.36
2023-03-18T13:46:02.290Z,15.41
2023-03-18T13:48:36.485Z,15.51
2023-03-18T13:51:36.741Z,15.72
2023-03-18T13:54:07.019Z,15.94
2023-03-18T13:56:48.570Z,16.09
2023-03-18T13:59:33.776Z,16.13
2023-03-18T14:02:28.429Z,15.79
2023-03-18T14:04:58.459Z,15.63
2023-03-18T14:07:26.311Z,15.56
2023-03-18T14:10:17.751Z,15.36
2023-03-18T14:12:49.688Z,15.48
2023-03-18T14:15:16.982Z,15.58
2023-03-18T14:17:54.569Z,15.57
2023-03-18T14:20:39.423Z,15.45
2023-03-18T14:23:21.463Z,15.52
2023-03-18T14:26:04.823Z,15.62
2023-03-18T14:28:45.026Z,15.72
2023-03-18T14:31:34.881Z,15.72
2023-03-18T14:34:04.547Z,15.58
2023-03-18T14:37:00.232Z,15.47
2023-03-18T14:39:41.173Z,15.48
2023-03-18T14:42:31.879Z,15.52
2023-03-18T14:45:18.052Z,15.52
2023-03-18T14:48:11.982Z,15.59
2023-03-18T14:50:47.449Z,15.61
2023-03-18T14:53:51.405Z,15.54
2023-03-18T14:56:24.284Z,15.53
2023-03-18T14:58:54.270Z,15.55
2023-03-18T15:02:14.359Z,15.51
2023-03-18T15:04:52.614Z,15.67
2023-03-18T15:07:19.142Z,15.56
2023-03-18T15:09:49.760Z,15.47
2023-03-18T15:16:05.076Z,15.58
2023-03-18T15:18:37.508Z,15.60
2023-03-18T15:21:18.940Z,15.55
2023-03-18T15:23:52.102Z,15.51
2023-03-18T15:26:37.847Z,15.43
2023-03-18T15:29:25.672Z,15.34
2023-03-18T15:31:53.789Z,15.35
2023-03-18T15:34:30.945Z,15.41
2023-03-18T15:37:02.457Z,15.34
2023-03-18T15:39:36.304Z,15.36
2023-03-18T15:42:15.179Z,15.39
2023-03-18T15:44:45.838Z,15.35
2023-03-18T15:47:15.054Z,15.27
2023-03-18T15:49:58.070Z,15.27
2023-03-18T15:52:28.538Z,15.27
2023-03-18T15:54:56.175Z,15.25
2023-03-18T15:57:43.787Z,15.25
2023-03-18T16:00:14.233Z,15.27
2023-03-18T16:02:42.451Z,15.27
2023-03-18T16:05:20.468Z,15.23
2023-03-18T16:07:49.509Z,15.16
2023-03-18T16:10:20.634Z,15.17
2023-03-18T16:12:48.094Z,15.14
2023-03-18T16:15:21.945Z,15.06
2023-03-18T16:17:53.589Z,15.02
2023-03-18T16:20:31.622Z,15.00
2023-03-18T16:22:59.742Z,14.99
2023-03-18T16:25:26.958Z,14.94
2023-03-18T16:27:59.746Z,14.89
2023-03-18T16:30:29.555Z,14.90
2023-03-18T16:32:57.188Z,14.91
2023-03-18T16:35:26.370Z,14.82
2023-03-18T16:37:53.375Z,14.79
2023-03-18T16:40:27.210Z,14.76
2023-03-18T16:42:54.555Z,14.70
2023-03-18T16:45:30.249Z,14.64
2023-03-18T16:47:59.879Z,14.60
2023-03-18T16:50:34.716Z,14.57
2023-03-18T16:53:03.144Z,14.52
2023-03-18T16:55:29.892Z,14.50
2023-03-18T16:57:59.553Z,14.45
2023-03-18T17:00:32.877Z,14.39
2023-03-18T17:03:00.450Z,14.32
2023-03-18T17:05:31.540Z,14.25
2023-03-18T17:07:58.270Z,14.18
2023-03-18T17:10:27.581Z,14.14
2023-03-18T17:13:00.291Z,14.11
2023-03-18T17:15:33.016Z,14.02
2023-03-18T17:18:00.484Z,13.93
2023-03-18T17:20:30.326Z,13.84
2023-03-18T17:22:56.896Z,13.78
2023-03-18T17:25:27.209Z,13.72
2023-03-18T17:27:54.655Z,13.68
2023-03-18T17:30:24.179Z,13.63
2023-03-18T17:32:51.501Z,13.51
2023-03-18T17:35:21.152Z,13.41
2023-03-18T17:37:48.772Z,13.37
2023-03-18T17:40:17.618Z,13.32
2023-03-18T17:42:47.099Z,13.27
2023-03-18T17:45:29.614Z,13.23
2023-03-18T17:48:15.695Z,13.20
2023-03-18T17:50:44.185Z,13.20
2023-03-18T17:53:22.428Z,13.20
2023-03-18T17:55:48.845Z,13.18
2023-03-18T17:58:20.486Z,13.07
2023-03-18T18:00:47.961Z,12.98
2023-03-18T18:03:27.366Z,12.95
2023-03-18T18:05:55.928Z,12.94
2023-03-18T18:08:25.149Z,12.87
2023-03-18T18:10:54.367Z,12.85
2023-03-18T18:13:22.884Z,12.83
2023-03-18T18:15:50.868Z,12.81
2023-03-18T18:18:25.551Z,12.75
2023-03-18T18:20:57.876Z,12.64
2023-03-18T18:23:36.007Z,12.55
2023-03-18T18:26:12.176Z,12.50
2023-03-18T18:28:41.017Z,12.44
2023-03-18T18:31:10.048Z,12.40
2023-03-18T18:33:38.471Z,12.41
2023-03-18T18:36:06.459Z,12.41
2023-03-18T18:38:33.008Z,12.30
2023-03-18T18:41:00.093Z,12.34
2023-03-18T18:43:27.423Z,12.39
2023-03-18T18:45:56.032Z,12.42
2023-03-18T18:48:44.324Z,12.36
2023-03-18T18:51:18.485Z,12.32
2023-03-18T18:53:45.933Z,12.27
2023-03-18T18:56:15.850Z,12.22
2023-03-18T18:58:42.384Z,12.09
2023-03-18T19:01:09.007Z,12.02
2023-03-18T19:03:35.740Z,11.99
2023-03-18T19:06:04.801Z,11.97
2023-03-18T19:08:36.044Z,11.97
2023-03-18T19:11:03.670Z,11.95
2023-03-18T19:13:36.286Z,11.89
2023-03-18T19:16:05.638Z,11.82
2023-03-18T19:18:39.170Z,11.77
2023-03-18T19:21:06.057Z,11.74
2023-03-18T19:23:34.652Z,11.75
2023-03-18T19:26:03.993Z,11.74
2023-03-18T19:28:57.005Z,11.72
2023-03-18T19:31:26.786Z,11.63
2023-03-18T19:33:53.931Z,11.65
2023-03-18T19:36:40.058Z,11.62
2023-03-18T19:39:15.115Z,11.48
2023-03-18T19:41:42.124Z,11.47
2023-03-18T19:44:34.867Z,11.51
2023-03-18T19:47:01.496Z,11.53
2023-03-18T19:49:35.846Z,11.51
2023-03-18T19:52:24.112Z,11.39
2023-03-18T19:54:51.935Z,11.23
2023-03-18T19:57:24.462Z,11.17
2023-03-18T19:59:53.363Z,11.24
2023-03-18T20:02:28.803Z,11.27
2023-03-18T20:04:57.589Z,11.22
2023-03-18T20:07:26.403Z,11.22
2023-03-18T20:09:53.850Z,11.17
2023-03-18T20:12:20.411Z,11.07
2023-03-18T20:14:47.058Z,11.07
2023-03-18T20:17:37.686Z,11.04
2023-03-18T20:20:07.294Z,11.09
2023-03-18T20:22:37.308Z,11.07
2023-03-18T20:25:05.594Z,10.97
2023-03-18T20:27:32.469Z,10.89
2023-03-18T20:29:59.047Z,10.93
2023-03-18T20:32:26.154Z,10.95
2023-03-18T20:34:52.615Z,11.00
2023-03-18T20:37:34.570Z,11.05
2023-03-18T20:40:03.874Z,11.05
2023-03-18T20:42:30.413Z,10.98
2023-03-18T20:44:56.854Z,10.81
2023-03-18T20:47:23.373Z,10.66
2023-03-18T20:49:49.920Z,10.57
2023-03-18T20:52:24.439Z,10.52
2023-03-18T20:54:50.953Z,10.44
2023-03-18T20:57:18.830Z,10.39
2023-03-18T20:59:46.607Z,10.39
2023-03-18T21:02:25.119Z,10.56
2023-03-18T21:04:51.540Z,10.59
2023-03-18T21:07:18.053Z,10.63
2023-03-18T21:09:45.001Z,10.62
2023-03-18T21:12:16.943Z,10.60
2023-03-18T21:14:43.468Z,10.54
2023-03-18T21:17:21.330Z,10.52
2023-03-18T21:19:49.198Z,10.44
2023-03-18T21:22:21.830Z,10.43
2023-03-18T21:24:49.287Z,10.25
2023-03-18T21:27:21.694Z,10.01
2023-03-18T21:29:49.636Z,9.89
2023-03-18T21:32:19.973Z,9.78
2023-03-18T21:34:46.591Z,9.68
2023-03-18T21:37:16.424Z,9.63
2023-03-18T21:39:43.348Z,9.70
2023-03-18T21:42:30.475Z,9.86
2023-03-18T21:44:59.606Z,9.95
2023-03-18T21:47:27.068Z,9.94
2023-03-18T21:49:53.917Z,9.78
2023-03-18T21:52:32.520Z,9.76
2023-03-18T21:55:01.060Z,9.74
2023-03-18T21:57:29.142Z,9.71
2023-03-18T21:59:56.236Z,9.60
2023-03-18T22:02:29.196Z,9.56
2023-03-18T22:05:00.259Z,9.55
2023-03-18T22:07:31.231Z,9.58
2023-03-18T22:09:58.518Z,9.62
2023-03-18T22:12:28.298Z,9.40
2023-03-18T22:14:55.568Z,9.21
2023-03-18T22:17:31.631Z,9.33
2023-03-18T22:19:59.910Z,9.36
2023-03-18T22:22:34.685Z,9.38
2023-03-18T22:25:01.147Z,9.16
2023-03-18T22:27:29.683Z,8.72
2023-03-18T22:29:58.664Z,8.73
2023-03-18T22:32:40.846Z,8.87
2023-03-18T22:35:28.028Z,9.17
2023-03-18T22:37:56.005Z,9.29
2023-03-18T22:40:28.065Z,9.28
2023-03-18T22:43:00.315Z,9.32
2023-03-18T22:45:34.114Z,9.32
2023-03-18T22:48:02.341Z,9.40
2023-03-18T22:50:32.130Z,9.45
2023-03-18T22:53:05.408Z,9.36
2023-03-18T22:55:35.630Z,9.28
2023-03-18T22:58:02.256Z,9.21
2023-03-18T23:00:40.501Z,9.06
2023-03-18T23:03:13.340Z,8.92
2023-03-18T23:05:39.978Z,8.98
2023-03-18T23:08:06.558Z,9.09
2023-03-18T23:10:33.275Z,9.10
2023-03-18T23:12:59.781Z,8.96
2023-03-18T23:15:26.271Z,8.91
2023-03-18T23:17:52.705Z,8.79
2023-03-18T23:20:19.371Z,8.76
2023-03-18T23:22:46.163Z,8.77
2023-03-18T23:25:16.515Z,8.75
2023-03-18T23:27:43.683Z,8.89
2023-03-18T23:30:12.423Z,8.77
2023-03-18T23:32:40.184Z,8.67
2023-03-18T23:35:08.624Z,8.81
2023-03-18T23:37:35.379Z,8.80
2023-03-18T23:40:02.039Z,8.83
2023-03-18T23:42:28.490Z,8.88
2023-03-18T23:44:54.965Z,8.93
2023-03-18T23:47:21.530Z,8.96
2023-03-18T23:49:48.037Z,8.87
2023-03-18T23:52:15.962Z,8.80
2023-03-18T23:54:42.870Z,8.74
2023-03-18T23:57:11.154Z,8.78
2023-03-18T23:59:38.295Z,8.61
